Time;durP1;ratioP1;P1;durP2;ratioP2;P2;SDS_P1;SDS_P2;PMS_P1;PMS_P2;Temp;Humidity;BMP_temperature;BMP_pressure;BME280_temperature;BME280_humidity;BME280_pressure;Samples;Min_cycle;Max_cycle;Signal;HPM_P1;HPM_P2
2023/06/15 00:01:40;;;;;;;5.13;4.63;;;;;;;;;;10274493;28;20495;-82
2023/06/15 00:06:40;;;;;;;5.20;4.40;;;;;;;;;;10274416;28;20054;-82
2023/06/15 00:11:41;;;;;;;5.82;5.15;;;;;;;;;;10271629;28;20061;-79
2023/06/15 00:16:42;;;;;;;5.60;4.93;;;;;;;;;;10270046;28;20078;-81
2023/06/15 00:21:42;;;;;;;5.72;5.20;;;;;;;;;;10258498;28;20369;-81
2023/06/15 00:26:46;;;;;;;5.97;5.22;;;;;;;;;;10275059;28;20049;-83
2023/06/15 00:31:47;;;;;;;6.32;5.43;;;;;;;;;;10257586;28;20035;-83
2023/06/15 00:36:47;;;;;;;7.10;5.17;;;;;;;;;;10298998;28;20037;-82
2023/06/15 00:41:47;;;;;;;5.87;5.30;;;;;;;;;;10247185;28;20317;-82
2023/06/15 00:46:48;;;;;;;5.78;5.18;;;;;;;;;;10267862;28;20035;-81
2023/06/15 00:51:48;;;;;;;6.20;5.50;;;;;;;;;;10282331;28;20054;-83
2023/06/15 00:56:50;;;;;;;5.47;4.97;;;;;;;;;;10260098;28;20061;-82
2023/06/15 01:01:54;;;;;;;7.85;5.57;;;;;;;;;;10281009;28;20161;-83
2023/06/15 01:07:04;;;;;;;6.45;5.70;;;;;;;;;;10267832;28;20139;-82
2023/06/15 01:12:07;;;;;;;6.50;5.57;;;;;;;;;;10268062;28;20043;-83
2023/06/15 01:17:13;;;;;;;6.10;5.50;;;;;;;;;;10259925;28;20043;-82
2023/06/15 01:22:19;;;;;;;5.90;5.35;;;;;;;;;;10279851;28;20050;-79
2023/06/15 01:27:21;;;;;;;6.28;5.65;;;;;;;;;;10280268;28;20042;-80
2023/06/15 01:32:21;;;;;;;7.63;5.72;;;;;;;;;;10295638;28;20717;-77
2023/06/15 01:37:21;;;;;;;6.10;5.43;;;;;;;;;;10288071;28;20142;-79
2023/06/15 01:42:23;;;;;;;7.05;5.82;;;;;;;;;;10266947;28;20054;-80
2023/06/15 01:47:23;;;;;;;6.65;5.57;;;;;;;;;;10254357;28;20050;-81
2023/06/15 01:52:24;;;;;;;6.25;5.65;;;;;;;;;;10257058;28;20057;-81
2023/06/15 01:57:25;;;;;;;5.72;5.10;;;;;;;;;;10265179;28;20050;-80
2023/06/15 02:02:25;;;;;;;5.80;5.25;;;;;;;;;;10309888;28;20055;-81
2023/06/15 02:07:26;;;;;;;5.85;5.25;;;;;;;;;;10305420;28;20047;-82
2023/06/15 02:12:26;;;;;;;5.18;4.68;;;;;;;;;;10309658;28;20429;-78
2023/06/15 02:17:30;;;;;;;5.40;4.90;;;;;;;;;;10259680;28;20518;-81
2023/06/15 02:22:31;;;;;;;6.15;5.28;;;;;;;;;;10287514;28;20043;-79
2023/06/15 02:27:32;;;;;;;7.10;6.13;;;;;;;;;;10319733;28;20031;-80
2023/06/15 02:32:36;;;;;;;5.82;5.22;;;;;;;;;;10321550;28;20062;-83
2023/06/15 02:37:38;;;;;;;5.78;5.28;;;;;;;;;;10290498;28;20078;-84
2023/06/15 02:42:39;;;;;;;5.97;5.40;;;;;;;;;;10274289;28;20098;-81
2023/06/15 02:47:40;;;;;;;6.20;5.30;;;;;;;;;;10295387;28;20022;-80
2023/06/15 02:52:45;;;;;;;6.35;5.50;;;;;;;;;;10263024;28;20065;-82
2023/06/15 02:57:47;;;;;;;5.97;5.47;;;;;;;;;;10253277;28;20049;-81
2023/06/15 03:02:55;;;;;;;5.63;5.03;;;;;;;;;;10254371;28;20086;-81
2023/06/15 03:07:59;;;;;;;5.85;5.35;;;;;;;;;;10253239;28;20051;-81
2023/06/15 03:13:22;;;;;;;6.15;5.55;;;;;;;;;;10275276;28;20165;-83
2023/06/15 03:18:24;;;;;;;6.53;5.93;;;;;;;;;;10280379;28;20146;-83
2023/06/15 03:23:25;;;;;;;6.57;5.97;;;;;;;;;;10260955;28;20596;-81
2023/06/15 03:28:27;;;;;;;7.13;6.43;;;;;;;;;;10281316;28;20046;-81
2023/06/15 03:33:29;;;;;;;6.47;5.80;;;;;;;;;;10277521;28;20039;-81
2023/06/15 03:38:30;;;;;;;6.13;5.53;;;;;;;;;;10277461;28;20479;-81
2023/06/15 03:43:30;;;;;;;7.78;6.40;;;;;;;;;;10272669;28;20050;-79
2023/06/15 03:48:32;;;;;;;7.40;6.70;;;;;;;;;;10263215;28;20139;-81
2023/06/15 03:53:36;;;;;;;7.03;6.07;;;;;;;;;;10268992;28;20058;-83
2023/06/15 03:58:36;;;;;;;11.00;6.55;;;;;;;;;;10265668;28;20078;-80
2023/06/15 04:03:38;;;;;;;6.68;6.07;;;;;;;;;;10263570;28;20059;-79
2023/06/15 04:08:39;;;;;;;7.05;6.22;;;;;;;;;;10251328;28;20759;-84
2023/06/15 04:13:41;;;;;;;7.07;6.47;;;;;;;;;;10263884;28;20058;-83
2023/06/15 04:18:42;;;;;;;7.70;6.90;;;;;;;;;;10264514;28;20062;-82
2023/06/15 04:23:43;;;;;;;7.30;6.60;;;;;;;;;;10291182;28;20034;-82
2023/06/15 04:28:45;;;;;;;9.13;6.95;;;;;;;;;;10349892;28;20042;-80
2023/06/15 04:33:47;;;;;;;6.93;6.23;;;;;;;;;;10355134;28;20640;-83
2023/06/15 04:38:49;;;;;;;7.47;6.50;;;;;;;;;;10266515;28;20047;-81
2023/06/15 04:43:52;;;;;;;7.78;6.88;;;;;;;;;;10263769;28;20063;-81
2023/06/15 04:48:57;;;;;;;6.25;5.63;;;;;;;;;;10251699;28;20055;-79
2023/06/15 04:53:57;;;;;;;7.00;6.35;;;;;;;;;;10263982;28;20411;-80
2023/06/15 04:58:58;;;;;;;5.75;5.25;;;;;;;;;;10267605;28;20058;-80
2023/06/15 05:04:00;;;;;;;6.60;6.00;;;;;;;;;;10246261;28;20177;-79
2023/06/15 05:09:01;;;;;;;7.68;6.88;;;;;;;;;;10250391;28;21126;-79
2023/06/15 05:14:03;;;;;;;7.82;6.47;;;;;;;;;;10257447;28;20053;-77
2023/06/15 05:19:04;;;;;;;7.60;6.73;;;;;;;;;;10256450;28;20061;-79
2023/06/15 05:24:06;;;;;;;7.25;6.55;;;;;;;;;;10240161;28;20846;-81
2023/06/15 05:29:07;;;;;;;7.40;6.70;;;;;;;;;;10253890;28;20043;-79
2023/06/15 05:34:09;;;;;;;8.45;7.10;;;;;;;;;;10268801;28;20054;-78
2023/06/15 05:39:10;;;;;;;7.78;6.90;;;;;;;;;;10249080;28;20755;-78
2023/06/15 05:44:10;;;;;;;7.90;7.10;;;;;;;;;;10278730;28;20051;-78
2023/06/15 05:49:11;;;;;;;7.55;6.60;;;;;;;;;;10273735;28;20049;-79
2023/06/15 05:54:12;;;;;;;8.60;6.88;;;;;;;;;;10243999;28;20078;-78
2023/06/15 05:59:16;;;;;;;6.60;5.93;;;;;;;;;;10270678;28;20042;-82
2023/06/15 06:04:17;;;;;;;6.97;6.38;;;;;;;;;;10254660;28;20510;-82
2023/06/15 06:09:18;;;;;;;8.25;6.22;;;;;;;;;;10264491;28;20046;-80
2023/06/15 06:14:19;;;;;;;8.82;7.30;;;;;;;;;;10265738;28;20046;-79
2023/06/15 06:19:19;;;;;;;9.63;6.97;;;;;;;;;;10251676;28;20043;-79
2023/06/15 06:24:20;;;;;;;7.50;6.43;;;;;;;;;;10319571;28;20047;-78
2023/06/15 06:29:22;;;;;;;;;;;;;;;;;;10273328;28;20105;-80
2023/06/15 06:34:23;;;;;;;6.78;5.88;;;;;;;;;;10294187;28;19922;-80
2023/06/15 06:39:23;;;;;;;8.97;7.27;;;;;;;;;;10257710;28;20487;-79
2023/06/15 06:44:24;;;;;;;8.32;7.28;;;;;;;;;;10253770;28;20055;-83
2023/06/15 06:49:24;;;;;;;7.55;6.80;;;;;;;;;;10265292;28;20125;-84
2023/06/15 06:54:25;;;;;;;8.50;6.95;;;;;;;;;;10260993;28;20727;-84
2023/06/15 06:59:25;;;;;;;7.80;7.07;;;;;;;;;;10302318;28;20043;-85
2023/06/15 07:04:25;;;;;;;9.40;7.00;;;;;;;;;;10303469;28;20090;-83
2023/06/15 07:09:27;;;;;;;7.32;6.57;;;;;;;;;;10297853;28;20330;-82
2023/06/15 07:14:27;;;;;;;8.65;7.28;;;;;;;;;;10274885;28;20047;-81
2023/06/15 07:19:29;;;;;;;8.25;7.45;;;;;;;;;;10295205;28;20074;-81
2023/06/15 07:24:29;;;;;;;7.45;6.70;;;;;;;;;;10267088;28;20057;-81
2023/06/15 07:29:30;;;;;;;8.10;7.30;;;;;;;;;;10283024;28;20052;-81
2023/06/15 07:34:30;;;;;;;7.68;6.88;;;;;;;;;;10279650;28;20278;-82
2023/06/15 07:39:30;;;;;;;8.10;7.27;;;;;;;;;;10283331;28;20122;-83
2023/06/15 07:44:31;;;;;;;7.85;7.13;;;;;;;;;;10318474;28;20050;-82
2023/06/15 07:49:32;;;;;;;8.48;6.85;;;;;;;;;;10315070;28;20046;-81
2023/06/15 07:54:32;;;;;;;8.53;7.40;;;;;;;;;;10310199;28;20387;-80
2023/06/15 07:59:33;;;;;;;9.88;7.40;;;;;;;;;;10322858;28;20090;-82
2023/06/15 08:04:34;;;;;;;9.10;7.47;;;;;;;;;;10301111;28;20055;-81
2023/06/15 08:09:34;;;;;;;9.23;7.10;;;;;;;;;;10300357;28;20337;-81
2023/06/15 08:14:36;;;;;;;7.80;6.32;;;;;;;;;;10263182;28;20046;-81
2023/06/15 08:19:36;;;;;;;7.97;7.05;;;;;;;;;;10269887;28;20065;-81
2023/06/15 08:24:36;;;;;;;7.70;7.00;;;;;;;;;;10311102;28;20038;-80
2023/06/15 08:29:43;;;;;;;7.45;6.68;;;;;;;;;;10336134;28;20039;-80
2023/06/15 08:34:43;;;;;;;7.53;6.78;;;;;;;;;;10335508;28;20043;-80
2023/06/15 08:39:48;;;;;;;7.75;6.97;;;;;;;;;;10326102;28;20052;-81
2023/06/15 08:44:50;;;;;;;6.88;6.28;;;;;;;;;;10287614;28;20117;-82
2023/06/15 08:49:51;;;;;;;7.28;6.50;;;;;;;;;;10292205;28;20557;-82
2023/06/15 08:54:52;;;;;;;6.68;6.05;;;;;;;;;;10269663;28;20111;-81
2023/06/15 08:59:53;;;;;;;6.78;5.78;;;;;;;;;;10267857;28;20066;-81
2023/06/15 09:04:53;;;;;;;7.55;6.78;;;;;;;;;;10302720;28;20059;-82
2023/06/15 09:10:09;;;;;;;10.15;9.05;;;;;;;;;;10272887;28;20459;-82
2023/06/15 09:15:17;;;;;;;6.50;5.90;;;;;;;;;;10278862;28;20478;-82
2023/06/15 09:20:21;;;;;;;5.95;5.35;;;;;;;;;;10275543;28;20082;-81
2023/06/15 09:25:23;;;;;;;6.82;5.68;;;;;;;;;;10278038;28;20062;-81
2023/06/15 09:30:33;;;;;;;5.97;5.07;;;;;;;;;;10272680;28;20479;-83
2023/06/15 09:35:34;;;;;;;6.55;5.18;;;;;;;;;;10295024;28;20110;-82
2023/06/15 09:40:34;;;;;;;6.80;5.53;;;;;;;;;;10259390;28;20546;-79
2023/06/15 09:45:34;;;;;;;5.65;5.15;;;;;;;;;;10300094;28;20066;-83
2023/06/15 09:50:35;;;;;;;5.30;4.80;;;;;;;;;;10300471;28;20066;-84
2023/06/15 09:55:36;;;;;;;5.83;5.00;;;;;;;;;;10313385;28;20321;-79
2023/06/15 10:00:37;;;;;;;5.53;4.57;;;;;;;;;;10276070;28;20046;-78
2023/06/15 10:05:44;;;;;;;5.17;4.67;;;;;;;;;;10282112;28;20147;-83
2023/06/15 10:10:45;;;;;;;5.50;4.90;;;;;;;;;;10282264;28;20046;-81
2023/06/15 10:15:51;;;;;;;6.15;4.70;;;;;;;;;;10288728;28;20042;-82
2023/06/15 10:20:54;;;;;;;5.32;4.82;;;;;;;;;;10316191;28;20089;-83
2023/06/15 10:25:59;;;;;;;6.03;4.80;;;;;;;;;;10301307;28;20042;-82
2023/06/15 10:31:09;;;;;;;5.65;5.05;;;;;;;;;;10325112;28;20407;-83
2023/06/15 10:36:29;;;;;;;5.35;4.70;;;;;;;;;;10301517;28;20039;-83
2023/06/15 10:41:30;;;;;;;5.70;4.90;;;;;;;;;;10287368;28;20058;-83
2023/06/15 10:46:32;;;;;;;4.63;4.22;;;;;;;;;;10288113;28;20050;-84
2023/06/15 10:51:35;;;;;;;5.63;5.10;;;;;;;;;;10289429;28;20053;-82
2023/06/15 10:56:47;;;;;;;4.75;4.35;;;;;;;;;;10280314;28;20052;-82
2023/06/15 11:01:47;;;;;;;5.10;4.60;;;;;;;;;;10267103;28;20089;-84
2023/06/15 11:07:01;;;;;;;8.83;8.03;;;;;;;;;;10295642;28;20073;-83
2023/06/15 11:12:21;;;;;;;4.68;4.28;;;;;;;;;;10287594;28;20306;-81
2023/06/15 11:17:22;;;;;;;4.55;4.15;;;;;;;;;;10245480;28;20886;-82
2023/06/15 11:22:28;;;;;;;4.90;4.22;;;;;;;;;;10276822;28;20102;-81
2023/06/15 11:27:29;;;;;;;4.75;4.22;;;;;;;;;;10258709;28;20469;-81
2023/06/15 11:32:30;;;;;;;5.05;4.50;;;;;;;;;;10256643;28;20146;-81
2023/06/15 11:37:31;;;;;;;4.35;3.97;;;;;;;;;;10276416;28;20464;-79
2023/06/15 11:42:40;;;;;;;5.22;4.72;;;;;;;;;;10286566;28;20466;-81
2023/06/15 11:47:41;;;;;;;4.80;4.40;;;;;;;;;;10277943;28;20070;-82
2023/06/15 11:52:42;;;;;;;5.72;4.38;;;;;;;;;;10285089;28;20130;-83
2023/06/15 11:57:43;;;;;;;;;;;;;;;;;;10317965;28;20058;-82
2023/06/15 12:02:43;;;;;;;4.93;4.47;;;;;;;;;;10276276;28;19956;-82
2023/06/15 12:07:44;;;;;;;4.60;4.05;;;;;;;;;;10276787;28;20047;-83
2023/06/15 12:12:47;;;;;;;4.95;4.07;;;;;;;;;;10294160;28;20747;-82
2023/06/15 12:17:47;;;;;;;4.70;4.25;;;;;;;;;;10330653;28;20053;-82
2023/06/15 12:22:49;;;;;;;;;;;;;;;;;;10334961;28;20055;-81
2023/06/15 12:27:51;;;;;;;5.18;4.03;;;;;;;;;;10358766;28;19981;-81
2023/06/15 12:32:51;;;;;;;4.55;4.15;;;;;;;;;;10307020;28;20055;-81
2023/06/15 12:37:53;;;;;;;4.20;3.87;;;;;;;;;;10288976;28;20097;-81
2023/06/15 12:43:00;;;;;;;5.18;4.20;;;;;;;;;;10261219;28;20054;-81
2023/06/15 12:48:01;;;;;;;4.47;4.07;;;;;;;;;;10259598;28;20054;-83
2023/06/15 12:53:02;;;;;;;5.20;4.70;;;;;;;;;;10272551;28;21053;-81
2023/06/15 12:58:03;;;;;;;4.60;4.20;;;;;;;;;;10284757;28;20057;-83
2023/06/15 13:03:06;;;;;;;5.25;4.22;;;;;;;;;;10279583;28;20039;-83
2023/06/15 13:08:10;;;;;;;5.32;3.95;;;;;;;;;;10280868;28;20057;-84
2023/06/15 13:13:11;;;;;;;4.55;4.15;;;;;;;;;;10278229;28;20047;-78
2023/06/15 13:18:13;;;;;;;6.63;4.03;;;;;;;;;;10281681;28;20031;-78
2023/06/15 13:23:14;;;;;;;4.55;4.05;;;;;;;;;;10271243;28;20297;-77
2023/06/15 13:28:15;;;;;;;5.13;4.40;;;;;;;;;;10282101;28;20077;-82
2023/06/15 13:33:15;;;;;;;8.07;4.78;;;;;;;;;;10263737;28;20491;-80
2023/06/15 13:38:16;;;;;;;4.72;4.22;;;;;;;;;;10257048;28;20055;-82
2023/06/15 13:43:16;;;;;;;5.17;4.67;;;;;;;;;;10281339;28;20050;-80
2023/06/15 13:48:17;;;;;;;5.97;5.47;;;;;;;;;;10258799;28;20062;-81
2023/06/15 13:53:17;;;;;;;4.60;4.20;;;;;;;;;;10270274;28;20043;-79
2023/06/15 13:58:18;;;;;;;4.80;4.03;;;;;;;;;;10268316;28;20297;-78
2023/06/15 14:03:20;;;;;;;5.20;4.40;;;;;;;;;;10257496;28;20124;-79
2023/06/15 14:08:22;;;;;;;5.95;4.18;;;;;;;;;;10278501;28;20113;-80
2023/06/15 14:13:22;;;;;;;5.38;4.88;;;;;;;;;;10269945;28;20045;-78
2023/06/15 14:18:23;;;;;;;5.40;4.75;;;;;;;;;;10265226;28;20769;-75
2023/06/15 14:23:23;;;;;;;18.45;5.07;;;;;;;;;;10277984;28;20049;-77
2023/06/15 14:28:24;;;;;;;6.07;5.10;;;;;;;;;;10277901;28;20522;-76
2023/06/15 14:33:24;;;;;;;7.38;4.47;;;;;;;;;;10271914;28;20299;-78
2023/06/15 14:38:25;;;;;;;4.78;4.25;;;;;;;;;;10272519;28;20959;-76
2023/06/15 14:43:25;;;;;;;13.87;4.47;;;;;;;;;;10268768;28;20070;-78
2023/06/15 14:48:25;;;;;;;6.57;5.93;;;;;;;;;;10267556;28;20047;-81
2023/06/15 14:53:33;;;;;;;5.97;4.00;;;;;;;;;;10262306;28;20063;-78
2023/06/15 14:58:33;;;;;;;4.68;4.18;;;;;;;;;;10256552;28;20302;-80
2023/06/15 15:03:34;;;;;;;4.30;3.93;;;;;;;;;;10270229;28;20050;-81
2023/06/15 15:08:34;;;;;;;5.75;4.65;;;;;;;;;;10273937;28;20043;-82
2023/06/15 15:13:35;;;;;;;5.90;4.70;;;;;;;;;;10283217;28;20114;-80
2023/06/15 15:18:35;;;;;;;5.30;4.20;;;;;;;;;;10253539;28;20361;-77
2023/06/15 15:23:35;;;;;;;4.77;4.27;;;;;;;;;;10265184;28;20073;-81
2023/06/15 15:28:36;;;;;;;4.03;3.63;;;;;;;;;;10261955;28;20062;-80
2023/06/15 15:33:38;;;;;;;4.50;4.10;;;;;;;;;;10277412;28;20050;-82
2023/06/15 15:38:38;;;;;;;4.95;4.45;;;;;;;;;;10270594;28;20130;-79
2023/06/15 15:43:39;;;;;;;3.80;3.43;;;;;;;;;;10276289;28;20046;-81
2023/06/15 15:48:40;;;;;;;;;;;;;;;;;;10268955;28;20459;-79
2023/06/15 15:53:41;;;;;;;4.72;4.20;;;;;;;;;;10271584;28;19925;-79
2023/06/15 15:58:41;;;;;;;4.65;4.15;;;;;;;;;;10262529;28;20079;-78
2023/06/15 16:03:51;;;;;;;5.97;4.07;;;;;;;;;;10288970;28;20523;-78
2023/06/15 16:08:52;;;;;;;3.90;3.30;;;;;;;;;;10285379;28;20233;-81
2023/06/15 16:13:54;;;;;;;4.70;4.20;;;;;;;;;;10280656;28;20138;-78
2023/06/15 16:18:55;;;;;;;4.82;3.80;;;;;;;;;;10275621;28;20122;-76
2023/06/15 16:23:56;;;;;;;3.97;3.42;;;;;;;;;;10264121;28;20059;-74
2023/06/15 16:28:59;;;;;;;4.13;3.77;;;;;;;;;;10282066;28;20069;-72
2023/06/15 16:34:00;;;;;;;4.22;3.83;;;;;;;;;;10255869;28;21286;-76
2023/06/15 16:39:00;;;;;;;4.68;4.20;;;;;;;;;;10285004;28;20070;-77
2023/06/15 16:44:00;;;;;;;3.88;3.58;;;;;;;;;;10269398;28;20088;-78
2023/06/15 16:49:01;;;;;;;5.00;4.05;;;;;;;;;;10270463;28;20047;-72
2023/06/15 16:54:01;;;;;;;4.17;3.83;;;;;;;;;;10272844;28;20059;-73
2023/06/15 16:59:02;;;;;;;3.73;3.43;;;;;;;;;;10283322;28;20294;-76
2023/06/15 17:04:02;;;;;;;5.77;3.97;;;;;;;;;;10283020;28;20127;-76
2023/06/15 17:09:05;;;;;;;3.63;3.33;;;;;;;;;;10278243;28;20085;-78
2023/06/15 17:14:09;;;;;;;5.93;4.18;;;;;;;;;;10259123;28;20117;-78
2023/06/15 17:19:10;;;;;;;5.53;3.63;;;;;;;;;;10274886;28;20415;-74
2023/06/15 17:24:10;;;;;;;4.35;3.95;;;;;;;;;;10254500;28;20062;-77
2023/06/15 17:29:11;;;;;;;4.20;3.80;;;;;;;;;;10278472;28;20043;-73
2023/06/15 17:34:11;;;;;;;5.07;3.45;;;;;;;;;;10274093;28;20654;-71
2023/06/15 17:39:12;;;;;;;5.50;3.90;;;;;;;;;;10263168;28;20070;-71
2023/06/15 17:44:12;;;;;;;4.65;3.38;;;;;;;;;;10262994;28;20053;-67
2023/06/15 17:49:12;;;;;;;5.33;4.20;;;;;;;;;;10268169;28;20054;-78
2023/06/15 17:54:13;;;;;;;3.93;3.63;;;;;;;;;;10270683;28;20510;-84
2023/06/15 17:59:13;;;;;;;4.30;3.90;;;;;;;;;;10279280;28;20099;-81
2023/06/15 18:04:14;;;;;;;4.50;4.03;;;;;;;;;;10289900;28;20061;-82
2023/06/15 18:09:15;;;;;;;4.65;4.22;;;;;;;;;;10288608;28;20059;-82
2023/06/15 18:14:15;;;;;;;4.20;3.80;;;;;;;;;;10276670;28;20042;-79
2023/06/15 18:19:16;;;;;;;4.70;4.10;;;;;;;;;;10296392;28;20050;-77
2023/06/15 18:24:16;;;;;;;4.22;3.83;;;;;;;;;;10286539;28;20066;-78
2023/06/15 18:29:16;;;;;;;4.83;4.33;;;;;;;;;;10297943;28;20046;-80
2023/06/15 18:34:18;;;;;;;5.03;4.07;;;;;;;;;;10285730;28;20062;-82
2023/06/15 18:39:20;;;;;;;4.88;4.35;;;;;;;;;;10281055;28;21600;-80
2023/06/15 18:44:20;;;;;;;6.13;4.40;;;;;;;;;;10287959;28;20381;-79
2023/06/15 18:49:21;;;;;;;5.60;4.85;;;;;;;;;;10276009;28;20042;-81
2023/06/15 18:54:21;;;;;;;4.67;3.90;;;;;;;;;;10298923;28;20379;-81
2023/06/15 18:59:21;;;;;;;5.33;4.83;;;;;;;;;;10329832;28;20054;-81
2023/06/15 19:04:22;;;;;;;5.53;5.03;;;;;;;;;;10286962;28;20061;-77
2023/06/15 19:09:22;;;;;;;9.18;8.20;;;;;;;;;;10270838;28;20038;-81
2023/06/15 19:14:23;;;;;;;7.97;7.17;;;;;;;;;;10272548;28;20081;-80
2023/06/15 19:19:24;;;;;;;6.95;6.25;;;;;;;;;;10274457;28;20310;-82
2023/06/15 19:24:24;;;;;;;6.65;5.93;;;;;;;;;;10279840;28;20054;-82
2023/06/15 19:29:25;;;;;;;5.87;5.27;;;;;;;;;;10288925;28;20097;-82
2023/06/15 19:34:25;;;;;;;7.43;5.10;;;;;;;;;;10285227;28;20092;-81
2023/06/15 19:39:26;;;;;;;21.77;18.40;;;;;;;;;;10265820;28;20053;-78
2023/06/15 19:44:26;;;;;;;10.43;8.25;;;;;;;;;;10259178;28;20185;-73
2023/06/15 19:49:28;;;;;;;7.00;6.28;;;;;;;;;;10258723;28;20049;-80
2023/06/15 19:54:29;;;;;;;6.47;5.88;;;;;;;;;;10274203;28;20057;-80
2023/06/15 19:59:29;;;;;;;6.00;5.40;;;;;;;;;;10280332;28;20054;-81
2023/06/15 20:04:29;;;;;;;5.83;5.20;;;;;;;;;;10286182;28;20058;-80
2023/06/15 20:09:30;;;;;;;7.10;5.27;;;;;;;;;;10267002;28;20877;-78
2023/06/15 20:14:31;;;;;;;8.43;7.40;;;;;;;;;;10279996;28;20116;-81
2023/06/15 20:19:32;;;;;;;7.15;6.45;;;;;;;;;;10313801;28;20334;-78
2023/06/15 20:24:32;;;;;;;6.93;6.23;;;;;;;;;;10313468;28;20057;-80
2023/06/15 20:29:37;;;;;;;8.57;7.53;;;;;;;;;;10286165;28;20365;-80
2023/06/15 20:34:38;;;;;;;7.65;6.90;;;;;;;;;;10278327;28;20081;-82
2023/06/15 20:39:44;;;;;;;7.20;6.47;;;;;;;;;;10273848;28;20094;-82
2023/06/15 20:44:48;;;;;;;7.32;6.60;;;;;;;;;;10253919;28;20129;-81
2023/06/15 20:49:49;;;;;;;6.95;6.07;;;;;;;;;;10276961;28;20071;-83
2023/06/15 20:54:49;;;;;;;8.07;7.18;;;;;;;;;;10274345;28;20070;-80
2023/06/15 20:59:50;;;;;;;7.30;6.60;;;;;;;;;;10285100;28;20050;-81
2023/06/15 21:04:52;;;;;;;6.87;6.17;;;;;;;;;;10269729;28;20058;-80
2023/06/15 21:09:52;;;;;;;7.40;6.70;;;;;;;;;;10329342;28;20273;-82
2023/06/15 21:14:53;;;;;;;9.93;7.80;;;;;;;;;;10328733;28;20039;-79
2023/06/15 21:19:53;;;;;;;8.40;7.10;;;;;;;;;;10294026;28;20046;-82
2023/06/15 21:24:56;;;;;;;7.57;6.88;;;;;;;;;;10265720;28;20180;-82
2023/06/15 21:29:57;;;;;;;8.45;7.50;;;;;;;;;;10254212;28;20049;-82
2023/06/15 21:34:57;;;;;;;10.43;7.70;;;;;;;;;;10292719;28;20133;-83
2023/06/15 21:39:58;;;;;;;7.75;6.97;;;;;;;;;;10282980;28;20046;-81
2023/06/15 21:44:58;;;;;;;11.10;7.55;;;;;;;;;;10271678;28;20050;-81
2023/06/15 21:49:59;;;;;;;8.20;7.40;;;;;;;;;;10265726;28;20050;-81
2023/06/15 21:54:59;;;;;;;8.27;7.47;;;;;;;;;;10297125;28;20277;-81
2023/06/15 22:00:00;;;;;;;7.93;7.15;;;;;;;;;;10275964;28;20285;-82
2023/06/15 22:05:01;;;;;;;8.10;7.30;;;;;;;;;;10283523;28;20046;-82
2023/06/15 22:10:02;;;;;;;9.00;8.10;;;;;;;;;;10276776;28;20043;-82
2023/06/15 22:15:06;;;;;;;9.52;8.57;;;;;;;;;;10272152;28;20058;-81
2023/06/15 22:20:10;;;;;;;9.52;8.52;;;;;;;;;;10286133;28;20074;-79
2023/06/15 22:25:10;;;;;;;8.77;7.97;;;;;;;;;;10317300;28;20066;-81
2023/06/15 22:30:11;;;;;;;9.00;8.10;;;;;;;;;;10303771;28;20054;-81
2023/06/15 22:35:11;;;;;;;9.90;8.43;;;;;;;;;;10267130;28;20055;-82
2023/06/15 22:40:12;;;;;;;9.50;8.50;;;;;;;;;;10266997;28;20051;-81
2023/06/15 22:45:13;;;;;;;8.47;7.67;;;;;;;;;;10270569;28;20102;-83
2023/06/15 22:50:14;;;;;;;9.30;8.40;;;;;;;;;;10264956;28;20051;-81
2023/06/15 22:55:14;;;;;;;9.55;8.35;;;;;;;;;;10275810;28;20042;-81
2023/06/15 23:00:15;;;;;;;8.35;7.65;;;;;;;;;;10271048;28;20050;-82
2023/06/15 23:05:22;;;;;;;8.82;7.72;;;;;;;;;;10279501;28;20086;-82
2023/06/15 23:10:24;;;;;;;7.93;7.20;;;;;;;;;;10272525;28;20047;-81
2023/06/15 23:15:32;;;;;;;7.60;6.90;;;;;;;;;;10269441;28;20054;-81
2023/06/15 23:20:33;;;;;;;7.82;7.10;;;;;;;;;;10269870;28;20050;-82
2023/06/15 23:25:33;;;;;;;9.32;7.45;;;;;;;;;;10289352;28;20055;-82
2023/06/15 23:30:34;;;;;;;8.07;7.27;;;;;;;;;;10278928;28;20247;-81
2023/06/15 23:35:34;;;;;;;9.07;7.50;;;;;;;;;;10275563;28;20049;-80
2023/06/15 23:40:35;;;;;;;9.73;8.40;;;;;;;;;;10279040;28;20042;-81
2023/06/15 23:45:35;;;;;;;9.48;7.80;;;;;;;;;;10279458;28;20070;-82
2023/06/15 23:50:35;;;;;;;8.27;7.18;;;;;;;;;;10279018;28;20063;-81
2023/06/15 23:55:36;;;;;;;8.37;7.53;;;;;;;;;;10263869;28;20124;-80
